createdAt,value
2023-05-03T05:03:17.651Z,96449.00
2023-05-03T05:04:18.492Z,96455.00
2023-05-03T05:05:20.246Z,96453.00
2023-05-03T05:06:17.542Z,96453.00
2023-05-03T05:07:18.520Z,96453.00
2023-05-03T05:08:18.513Z,96453.00
2023-05-03T05:09:18.523Z,96455.00
2023-05-03T05:10:17.528Z,96455.00
2023-05-03T05:11:18.464Z,96455.00
2023-05-03T05:12:17.491Z,96465.00
2023-05-03T05:13:17.455Z,96457.00
2023-05-03T05:14:17.430Z,96455.00
2023-05-03T05:15:17.441Z,96457.00
2023-05-03T05:16:17.486Z,96465.00
2023-05-03T05:17:17.504Z,96465.00
2023-05-03T05:18:18.438Z,96467.00
2023-05-03T05:19:18.447Z,96469.00
2023-05-03T05:20:18.428Z,96469.00
2023-05-03T05:21:18.405Z,96471.00
2023-05-03T05:22:17.397Z,96471.00
2023-05-03T05:23:17.384Z,96471.00
2023-05-03T05:24:18.399Z,96467.00
2023-05-03T05:25:18.414Z,96471.00
2023-05-03T05:26:18.370Z,96469.00
2023-05-03T05:27:18.483Z,96471.00
2023-05-03T05:28:17.382Z,96469.00
2023-05-03T05:29:18.347Z,96475.00
2023-05-03T05:30:18.524Z,96479.00
2023-05-03T05:31:18.514Z,96479.00
2023-05-03T05:32:17.419Z,96477.00
2023-05-03T05:33:18.926Z,96479.00
2023-05-03T05:34:17.291Z,96477.00
2023-05-03T05:35:18.318Z,96477.00
2023-05-03T05:36:18.301Z,96477.00
2023-05-03T05:37:18.292Z,96477.00
2023-05-03T05:38:17.285Z,96479.00
2023-05-03T05:39:18.260Z,96477.00
2023-05-03T05:40:18.258Z,96479.00
2023-05-03T05:41:18.254Z,96479.00
2023-05-03T05:42:18.411Z,96475.00
2023-05-03T05:43:18.243Z,96479.00
2023-05-03T05:44:18.244Z,96477.00
2023-05-03T05:45:18.227Z,96477.00
2023-05-03T05:46:17.268Z,96479.00
2023-05-03T05:47:17.516Z,96479.00
2023-05-03T05:48:18.482Z,96481.00
2023-05-03T05:49:17.447Z,96483.00
2023-05-03T05:50:19.012Z,96481.00
2023-05-03T05:51:18.534Z,96483.00
2023-05-03T05:52:17.620Z,96481.00
2023-05-03T05:53:18.582Z,96483.00
2023-05-03T05:54:17.586Z,96481.00
2023-05-03T05:55:17.704Z,96481.00
2023-05-03T05:56:18.616Z,96485.00
2023-05-03T05:57:17.692Z,96481.00
2023-05-03T05:58:18.754Z,96483.00
2023-05-03T05:59:17.750Z,96485.00
2023-05-03T06:00:18.849Z,96483.00
2023-05-03T06:01:17.865Z,96481.00
2023-05-03T06:02:19.045Z,96481.00
2023-05-03T06:03:18.915Z,96483.00
2023-05-03T06:04:18.960Z,96485.00
2023-05-03T06:05:18.966Z,96479.00
2023-05-03T06:06:18.994Z,96481.00
2023-05-03T06:07:18.008Z,96479.00
2023-05-03T06:08:19.099Z,96481.00
2023-05-03T06:10:17.954Z,96479.00
2023-05-03T06:11:18.931Z,96477.00
2023-05-03T06:12:18.955Z,96481.00
2023-05-03T06:13:18.959Z,96481.00
2023-05-03T06:14:19.021Z,96481.00
2023-05-03T06:15:18.080Z,96483.00
2023-05-03T06:16:19.198Z,96481.00
2023-05-03T06:17:18.419Z,96483.00
2023-05-03T06:18:18.399Z,96485.00
2023-05-03T06:19:19.380Z,96481.00
2023-05-03T06:20:18.386Z,96481.00
2023-05-03T06:21:19.448Z,96483.00
2023-05-03T06:22:19.532Z,96483.00
2023-05-03T06:23:19.643Z,96481.00
2023-05-03T06:24:19.704Z,96483.00
2023-05-03T06:25:18.704Z,96485.00
2023-05-03T06:26:19.750Z,96483.00
2023-05-03T06:27:19.770Z,96485.00
2023-05-03T06:28:19.833Z,96481.00
2023-05-03T06:29:19.916Z,96481.00
2023-05-03T06:30:19.978Z,96481.00
2023-05-03T06:31:20.010Z,96481.00
2023-05-03T06:32:20.051Z,96481.00
2023-05-03T06:33:20.075Z,96477.00
2023-05-03T06:34:20.156Z,96481.00
2023-05-03T06:35:20.214Z,96479.00
2023-05-03T06:36:20.203Z,96477.00
2023-05-03T06:37:19.215Z,96477.00
2023-05-03T06:38:20.235Z,96483.00
2023-05-03T06:39:19.380Z,96479.00
2023-05-03T06:40:19.324Z,96479.00
2023-05-03T06:41:19.324Z,96481.00
2023-05-03T06:42:20.402Z,96479.00
2023-05-03T06:43:20.508Z,96481.00
2023-05-03T06:44:20.490Z,96481.00
2023-05-03T06:45:20.523Z,96477.00
2023-05-03T06:46:20.790Z,96479.00
2023-05-03T06:47:19.593Z,96479.00
2023-05-03T06:48:20.708Z,96481.00
2023-05-03T06:49:19.998Z,96481.00
2023-05-03T06:50:20.616Z,96481.00
2023-05-03T06:51:19.609Z,96481.00
2023-05-03T06:52:21.018Z,96479.00
2023-05-03T06:53:20.653Z,96477.00
2023-05-03T06:54:20.627Z,96477.00
2023-05-03T06:55:19.877Z,96479.00
2023-05-03T06:56:19.642Z,96477.00
2023-05-03T06:57:20.001Z,96475.00
2023-05-03T06:58:20.635Z,96475.00
2023-05-03T06:59:20.627Z,96477.00
2023-05-03T07:00:19.964Z,96475.00
2023-05-03T07:01:19.655Z,96473.00
2023-05-03T07:02:20.654Z,96473.00
2023-05-03T07:03:20.694Z,96473.00
2023-05-03T07:04:19.709Z,96471.00
2023-05-03T07:05:20.638Z,96471.00
2023-05-03T07:06:19.640Z,96467.00
2023-05-03T07:07:19.739Z,96471.00
2023-05-03T07:08:20.675Z,96467.00
2023-05-03T07:09:28.704Z,96467.00
2023-05-03T07:10:20.651Z,96469.00
2023-05-03T07:11:20.663Z,96471.00
2023-05-03T07:12:19.637Z,96467.00
2023-05-03T07:13:19.624Z,96467.00
2023-05-03T07:14:19.665Z,96457.00
2023-05-03T07:15:20.603Z,96457.00
2023-05-03T07:16:20.657Z,96465.00
2023-05-03T07:17:20.601Z,96457.00
2023-05-03T07:18:20.579Z,96457.00
2023-05-03T07:19:19.616Z,96455.00
2023-05-03T07:20:20.584Z,96455.00
2023-05-03T07:21:19.595Z,96453.00
2023-05-03T07:22:20.582Z,96451.00
2023-05-03T07:23:20.538Z,96453.00
2023-05-03T07:24:20.552Z,96455.00
2023-05-03T07:25:20.556Z,96453.00
2023-05-03T07:26:20.546Z,96451.00
2023-05-03T07:27:19.540Z,96453.00
2023-05-03T07:28:20.505Z,96449.00
2023-05-03T07:29:20.499Z,96451.00
2023-05-03T07:30:20.492Z,96447.00
2023-05-03T07:31:20.507Z,96451.00
2023-05-03T07:32:19.514Z,96451.00
2023-05-03T07:33:19.600Z,96449.00
2023-05-03T07:34:19.460Z,96447.00
2023-05-03T07:35:19.480Z,96451.00
2023-05-03T07:36:20.498Z,96449.00
2023-05-03T07:37:20.529Z,96451.00
2023-05-03T07:38:19.564Z,96449.00
2023-05-03T07:39:19.642Z,96447.00
2023-05-03T07:40:20.698Z,96447.00
2023-05-03T07:41:20.662Z,96443.00
2023-05-03T07:42:20.756Z,96441.00
2023-05-03T07:43:21.177Z,96445.00
2023-05-03T07:44:20.785Z,96441.00
2023-05-03T07:45:19.821Z,96441.00
2023-05-03T07:46:19.889Z,96437.00
2023-05-03T07:47:19.912Z,96441.00
2023-05-03T07:48:20.999Z,96441.00
2023-05-03T07:49:21.037Z,96447.00
2023-05-03T07:50:20.081Z,96445.00
2023-05-03T07:51:21.242Z,96447.00
2023-05-03T07:52:21.173Z,96445.00
2023-05-03T07:53:21.530Z,96445.00
2023-05-03T07:54:21.262Z,96441.00
2023-05-03T07:55:21.274Z,96439.00
2023-05-03T07:56:21.263Z,96437.00
2023-05-03T07:57:21.288Z,96441.00
2023-05-03T07:58:25.409Z,96439.00
2023-05-03T07:59:21.414Z,96441.00
2023-05-03T08:00:21.275Z,96443.00
2023-05-03T08:01:20.293Z,96441.00
2023-05-03T08:02:21.364Z,96441.00
2023-05-03T08:03:21.484Z,96443.00
2023-05-03T08:04:21.741Z,96437.00
2023-05-03T08:05:20.306Z,96435.00
2023-05-03T08:06:21.268Z,96435.00
2023-05-03T08:07:21.256Z,96434.00
2023-05-03T08:08:21.250Z,96439.00
2023-05-03T08:09:21.241Z,96441.00
2023-05-03T08:10:21.289Z,96437.00
2023-05-03T08:11:20.367Z,96434.00
2023-05-03T08:12:20.343Z,96437.00
2023-05-03T08:13:20.365Z,96435.00
2023-05-03T08:14:21.397Z,96435.00
2023-05-03T08:15:21.480Z,96437.00
2023-05-03T08:16:20.556Z,96437.00
2023-05-03T08:17:21.610Z,96434.00
2023-05-03T08:18:23.719Z,96441.00
2023-05-03T08:19:21.648Z,96437.00
2023-05-03T08:20:21.614Z,96437.00
2023-05-03T08:21:20.640Z,96437.00
2023-05-03T08:22:21.664Z,96437.00
2023-05-03T08:23:20.578Z,96435.00
2023-05-03T08:24:21.683Z,96437.00
2023-05-03T08:25:21.558Z,96439.00
2023-05-03T08:26:20.570Z,96439.00
2023-05-03T08:27:21.553Z,96435.00
2023-05-03T08:28:20.571Z,96439.00
2023-05-03T08:29:21.519Z,96435.00
2023-05-03T08:30:20.676Z,96435.00
2023-05-03T08:31:21.679Z,96435.00
2023-05-03T08:32:21.529Z,96439.00
2023-05-03T08:33:21.749Z,96443.00
2023-05-03T08:34:21.548Z,96441.00
2023-05-03T08:35:20.513Z,96441.00
2023-05-03T08:36:21.530Z,96437.00
2023-05-03T08:37:21.471Z,96437.00
2023-05-03T08:38:21.471Z,96435.00
2023-05-03T08:39:20.485Z,96441.00
2023-05-03T08:40:20.472Z,96441.00
2023-05-03T08:41:21.997Z,96441.00
2023-05-03T08:42:20.454Z,96439.00
2023-05-03T08:43:21.528Z,96435.00
2023-05-03T08:44:20.411Z,96439.00
2023-05-03T08:45:21.446Z,96439.00
2023-05-03T08:46:21.425Z,96439.00
2023-05-03T08:47:20.610Z,96437.00
2023-05-03T08:48:21.470Z,96439.00
2023-05-03T08:49:21.602Z,96437.00
2023-05-03T08:50:21.415Z,96437.00
2023-05-03T08:51:20.347Z,96437.00
2023-05-03T08:52:21.631Z,96439.00
2023-05-03T08:53:21.360Z,96434.00
2023-05-03T08:54:20.344Z,96439.00
2023-05-03T08:55:20.432Z,96435.00
2023-05-03T08:56:21.398Z,96435.00
2023-05-03T08:57:21.384Z,96435.00
2023-05-03T08:58:20.571Z,96437.00
2023-05-03T08:59:21.391Z,96437.00
2023-05-03T09:00:21.447Z,96439.00
2023-05-03T09:01:20.479Z,96439.00
2023-05-03T09:02:21.448Z,96437.00
2023-05-03T09:03:21.532Z,96437.00
2023-05-03T09:04:21.478Z,96437.00
2023-05-03T09:05:20.372Z,96435.00
2023-05-03T09:06:21.453Z,96437.00
2023-05-03T09:07:21.381Z,96437.00
2023-05-03T09:08:20.399Z,96435.00
2023-05-03T09:09:20.418Z,96437.00
2023-05-03T09:10:21.452Z,96437.00
2023-05-03T09:11:21.443Z,96437.00
2023-05-03T09:12:21.421Z,96439.00
2023-05-03T09:13:21.469Z,96437.00
2023-05-03T09:14:21.496Z,96441.00
2023-05-03T09:15:21.751Z,96437.00
2023-05-03T09:16:20.476Z,96441.00
2023-05-03T09:17:21.502Z,96445.00
2023-05-03T09:18:21.631Z,96443.00
2023-05-03T09:19:20.515Z,96443.00
2023-05-03T09:20:20.521Z,96441.00
2023-05-03T09:21:20.520Z,96441.00
2023-05-03T09:22:20.515Z,96439.00
2023-05-03T09:23:21.540Z,96437.00
2023-05-03T09:24:21.548Z,96435.00
2023-05-03T09:25:20.609Z,96434.00
2023-05-03T09:26:20.553Z,96434.00
2023-05-03T09:27:20.614Z,96434.00
2023-05-03T09:28:20.654Z,96439.00
2023-05-03T09:29:21.612Z,96435.00
2023-05-03T09:30:21.668Z,96435.00
2023-05-03T09:31:21.734Z,96432.00
2023-05-03T09:32:21.758Z,96432.00
2023-05-03T09:33:20.762Z,96430.00
2023-05-03T09:34:21.810Z,96432.00
2023-05-03T09:35:21.887Z,96434.00
2023-05-03T09:36:21.856Z,96430.00
2023-05-03T09:37:20.874Z,96432.00
2023-05-03T09:38:21.967Z,96426.00
2023-05-03T09:39:21.946Z,96430.00
2023-05-03T09:40:21.972Z,96426.00
2023-05-03T09:41:21.980Z,96420.00
2023-05-03T09:42:22.005Z,96422.00
2023-05-03T09:43:22.143Z,96422.00
2023-05-03T09:44:21.062Z,96414.00
2023-05-03T09:45:21.073Z,96412.00
2023-05-03T09:46:22.128Z,96412.00
2023-05-03T09:47:21.129Z,96408.00
2023-05-03T09:48:23.059Z,96414.00
2023-05-03T09:49:21.177Z,96404.00
2023-05-03T09:50:21.233Z,96404.00
2023-05-03T09:51:22.344Z,96406.00
2023-05-03T09:52:22.259Z,96404.00
2023-05-03T09:53:22.554Z,96404.00
2023-05-03T09:54:23.605Z,96404.00
2023-05-03T09:55:22.345Z,96402.00
2023-05-03T09:56:21.369Z,96402.00
2023-05-03T09:57:21.347Z,96402.00
2023-05-03T09:58:22.338Z,96398.00
2023-05-03T09:59:21.356Z,96396.00
2023-05-03T10:00:21.500Z,96400.00
2023-05-03T10:01:22.410Z,96398.00
2023-05-03T10:02:21.423Z,96400.00
2023-05-03T10:03:22.457Z,96400.00
2023-05-03T10:04:21.497Z,96398.00
2023-05-03T10:05:21.570Z,96398.00
2023-05-03T10:06:22.709Z,96396.00
2023-05-03T10:07:21.651Z,96400.00
2023-05-03T10:08:22.673Z,96396.00
2023-05-03T10:09:22.746Z,96395.00
2023-05-03T10:10:22.783Z,96393.00
2023-05-03T10:11:22.777Z,96391.00
2023-05-03T10:12:21.793Z,96391.00
2023-05-03T10:13:24.148Z,96391.00
2023-05-03T10:14:21.931Z,96389.00
2023-05-03T10:15:22.963Z,96391.00
2023-05-03T10:16:21.938Z,96391.00
2023-05-03T10:17:32.004Z,96391.00
2023-05-03T10:18:23.020Z,96387.00
2023-05-03T10:19:22.940Z,96387.00
2023-05-03T10:20:22.917Z,96387.00
2023-05-03T10:21:22.932Z,96381.00
2023-05-03T10:22:21.977Z,96381.00
2023-05-03T10:23:22.924Z,96377.00
2023-05-03T10:24:21.922Z,96377.00
2023-05-03T10:25:22.896Z,96379.00
2023-05-03T10:26:22.907Z,96381.00
2023-05-03T10:27:22.877Z,96377.00
2023-05-03T10:28:21.866Z,96379.00
2023-05-03T10:29:22.828Z,96377.00
2023-05-03T10:30:22.835Z,96379.00
2023-05-03T10:31:21.870Z,96379.00
2023-05-03T10:32:22.948Z,96371.00
2023-05-03T10:33:21.836Z,96371.00
2023-05-03T10:34:21.831Z,96371.00
2023-05-03T10:35:22.783Z,96373.00
2023-05-03T10:36:22.892Z,96369.00
2023-05-03T10:37:22.782Z,96369.00
2023-05-03T10:38:22.795Z,96367.00
2023-05-03T10:39:21.790Z,96371.00
2023-05-03T10:40:22.750Z,96369.00
2023-05-03T10:41:21.775Z,96367.00
2023-05-03T10:42:22.740Z,96367.00
2023-05-03T10:43:22.079Z,96369.00
2023-05-03T10:44:22.721Z,96367.00
2023-05-03T10:45:22.715Z,96365.00
2023-05-03T10:46:22.813Z,96363.00
2023-05-03T10:47:21.850Z,96365.00
2023-05-03T10:48:21.726Z,96365.00
2023-05-03T10:49:22.669Z,96363.00
2023-05-03T10:50:22.660Z,96363.00
2023-05-03T10:51:21.707Z,96365.00
2023-05-03T10:52:22.660Z,96365.00
2023-05-03T10:53:22.661Z,96369.00
2023-05-03T10:54:22.653Z,96367.00
2023-05-03T10:55:21.741Z,96367.00
2023-05-03T10:56:22.629Z,96367.00
2023-05-03T10:57:22.637Z,96365.00
2023-05-03T10:58:21.646Z,96363.00
2023-05-03T10:59:22.637Z,96361.00
2023-05-03T11:00:22.642Z,96365.00
2023-05-03T11:01:21.607Z,96359.00
2023-05-03T11:02:22.664Z,96361.00
2023-05-03T11:03:21.666Z,96361.00
2023-05-03T11:04:21.620Z,96363.00
2023-05-03T11:05:21.549Z,96363.00
2023-05-03T11:06:22.570Z,96359.00
2023-05-03T11:07:22.537Z,96359.00
2023-05-03T11:08:21.608Z,96357.00
2023-05-03T11:09:21.544Z,96355.00
2023-05-03T11:10:22.530Z,96353.00
2023-05-03T11:11:22.627Z,96355.00
2023-05-03T11:12:22.605Z,96351.00
2023-05-03T11:13:21.745Z,96349.00
2023-05-03T11:14:21.697Z,96348.00
2023-05-03T11:15:22.736Z,96349.00
2023-05-03T11:16:22.850Z,96348.00
2023-05-03T11:17:21.860Z,96346.00
2023-05-03T11:18:21.904Z,96342.00
2023-05-03T11:19:22.958Z,96344.00
2023-05-03T11:20:23.017Z,96342.00
2023-05-03T11:21:23.111Z,96344.00
2023-05-03T11:22:22.107Z,96342.00
2023-05-03T11:23:23.161Z,96342.00
2023-05-03T11:24:23.222Z,96342.00
2023-05-03T11:25:22.235Z,96342.00
2023-05-03T11:26:23.303Z,96340.00
2023-05-03T11:27:23.370Z,96342.00
2023-05-03T11:28:22.379Z,96340.00
2023-05-03T11:29:22.448Z,96338.00
2023-05-03T11:30:23.520Z,96338.00
2023-05-03T11:31:23.606Z,96340.00
2023-05-03T11:32:23.731Z,96340.00
2023-05-03T11:33:23.664Z,96342.00
2023-05-03T11:34:23.679Z,96342.00
2023-05-03T11:35:22.740Z,96338.00
2023-05-03T11:36:22.816Z,96340.00
2023-05-03T11:37:22.859Z,96340.00
2023-05-03T11:38:23.913Z,96340.00
2023-05-03T11:39:23.985Z,96336.00
2023-05-03T11:40:23.004Z,96338.00
2023-05-03T11:41:23.099Z,96338.00
2023-05-03T11:42:23.147Z,96340.00
2023-05-03T11:43:23.194Z,96338.00
2023-05-03T11:44:24.279Z,96338.00
2023-05-03T11:45:23.449Z,96338.00
2023-05-03T11:46:24.463Z,96336.00
2023-05-03T11:47:24.499Z,96336.00
2023-05-03T11:48:23.664Z,96334.00
2023-05-03T11:49:24.520Z,96334.00
2023-05-03T11:50:24.546Z,96330.00
2023-05-03T11:51:23.645Z,96334.00
2023-05-03T11:52:23.693Z,96332.00
2023-05-03T11:53:24.799Z,96332.00
2023-05-03T11:54:27.022Z,96334.00
2023-05-03T11:55:24.827Z,96332.00
2023-05-03T11:56:24.755Z,96332.00
2023-05-03T11:57:23.744Z,96332.00
2023-05-03T11:58:23.749Z,96330.00
2023-05-03T11:59:24.776Z,96328.00
2023-05-03T12:00:24.719Z,96328.00
2023-05-03T12:01:23.765Z,96328.00
2023-05-03T12:02:24.888Z,96324.00
2023-05-03T12:03:27.745Z,96326.00
2023-05-03T12:04:24.988Z,96326.00
2023-05-03T12:05:25.235Z,96328.00
2023-05-03T12:06:25.685Z,96328.00
2023-05-03T12:07:25.709Z,96326.00
2023-05-03T12:08:25.761Z,96326.00
2023-05-03T12:09:26.009Z,96324.00
2023-05-03T12:10:26.740Z,96322.00
2023-05-03T12:11:27.001Z,96324.00
2023-05-03T12:12:27.320Z,96320.00
2023-05-03T12:13:25.462Z,96320.00
2023-05-03T12:14:24.927Z,96322.00
2023-05-03T12:15:26.455Z,96322.00
2023-05-03T12:16:24.884Z,96318.00
2023-05-03T12:17:23.990Z,96320.00
2023-05-03T12:18:24.065Z,96318.00
2023-05-03T12:19:24.185Z,96320.00
2023-05-03T12:22:26.303Z,96318.00
2023-05-03T12:23:26.548Z,96316.00
2023-05-03T12:24:25.018Z,96320.00
2023-05-03T12:25:26.132Z,96318.00
2023-05-03T12:26:23.845Z,96318.00
2023-05-03T12:27:25.961Z,96314.00
2023-05-03T12:28:24.751Z,96316.00
2023-05-03T12:29:24.084Z,96312.00
2023-05-03T12:30:23.974Z,96314.00
2023-05-03T12:31:25.337Z,96316.00
2023-05-03T12:32:24.748Z,96316.00
2023-05-03T12:33:23.889Z,96314.00
2023-05-03T12:34:32.416Z,96312.00
2023-05-03T12:35:27.638Z,96314.00
2023-05-03T12:36:26.210Z,96310.00
2023-05-03T12:37:27.165Z,96312.00
2023-05-03T12:38:25.420Z,96314.00
2023-05-03T12:39:27.178Z,96310.00
2023-05-03T12:40:33.204Z,96308.00
2023-05-03T12:41:52.020Z,96304.00
2023-05-03T12:42:26.349Z,96304.00
2023-05-03T12:43:23.723Z,96306.00
2023-05-03T12:44:25.454Z,96306.00
2023-05-03T12:45:23.957Z,96304.00
2023-05-03T12:46:33.914Z,96304.00
2023-05-03T12:47:28.929Z,96302.00
2023-05-03T12:48:23.804Z,96304.00
2023-05-03T12:49:24.017Z,96302.00
2023-05-03T12:50:25.077Z,96304.00
2023-05-03T12:51:25.902Z,96301.00
2023-05-03T12:53:26.045Z,96302.00
2023-05-03T12:54:26.964Z,96297.00
2023-05-03T12:55:25.656Z,96295.00
2023-05-03T12:56:25.667Z,96297.00
2023-05-03T12:57:24.516Z,96293.00
2023-05-03T12:58:51.941Z,96297.00
2023-05-03T13:00:25.718Z,96293.00
2023-05-03T13:02:05.008Z,96293.00
2023-05-03T13:03:29.320Z,96291.00
2023-05-03T13:05:34.552Z,96287.00
2023-05-03T13:06:24.858Z,96285.00
2023-05-03T13:07:28.103Z,96289.00
2023-05-03T13:08:32.980Z,96287.00
2023-05-03T13:09:37.130Z,96285.00
2023-05-03T13:10:24.814Z,96291.00
2023-05-03T13:11:24.670Z,96281.00
2023-05-03T13:12:23.566Z,96281.00
2023-05-03T13:13:24.575Z,96279.00
2023-05-03T13:14:23.559Z,96279.00
2023-05-03T13:15:24.554Z,96277.00
2023-05-03T13:16:23.595Z,96277.00
2023-05-03T13:17:23.862Z,96279.00
2023-05-03T13:18:23.552Z,96279.00
2023-05-03T13:19:23.532Z,96281.00
2023-05-03T13:20:24.507Z,96277.00
2023-05-03T13:21:23.506Z,96277.00
2023-05-03T13:22:24.500Z,96275.00
2023-05-03T13:23:23.466Z,96277.00
2023-05-03T13:24:23.505Z,96271.00
2023-05-03T13:25:24.458Z,96271.00
2023-05-03T13:26:24.455Z,96271.00
2023-05-03T13:27:24.450Z,96275.00
2023-05-03T13:28:24.431Z,96275.00
2023-05-03T13:29:24.445Z,96275.00
2023-05-03T13:30:24.437Z,96263.00
2023-05-03T13:31:24.489Z,96271.00
2023-05-03T13:32:23.469Z,96273.00
2023-05-03T13:33:24.429Z,96273.00
2023-05-03T13:34:24.455Z,96265.00
2023-05-03T13:35:23.518Z,96262.00
2023-05-03T13:36:24.391Z,96265.00
2023-05-03T13:37:24.379Z,96263.00
2023-05-03T13:38:24.433Z,96267.00
2023-05-03T13:39:24.415Z,96260.00
2023-05-03T13:40:23.429Z,96262.00
2023-05-03T13:41:24.537Z,96258.00
2023-05-03T13:42:24.528Z,96260.00
2023-05-03T13:43:24.533Z,96262.00
2023-05-03T13:44:24.578Z,96256.00
2023-05-03T13:45:23.609Z,96254.00
2023-05-03T13:46:24.693Z,96254.00
2023-05-03T13:47:23.738Z,96252.00
2023-05-03T13:48:23.713Z,96254.00
2023-05-03T13:49:24.737Z,96252.00
2023-05-03T13:50:24.764Z,96248.00
2023-05-03T13:51:23.911Z,96254.00
2023-05-03T13:52:23.822Z,96256.00
2023-05-03T13:53:23.866Z,96252.00
2023-05-03T13:54:23.891Z,96254.00
2023-05-03T13:55:24.912Z,96250.00
2023-05-03T13:56:24.954Z,96252.00
2023-05-03T13:57:24.992Z,96252.00
2023-05-03T13:58:24.985Z,96252.00
2023-05-03T13:59:25.018Z,96252.00
2023-05-03T14:00:24.035Z,96250.00
2023-05-03T14:01:24.079Z,96248.00
2023-05-03T14:02:25.121Z,96252.00
2023-05-03T14:03:24.303Z,96248.00
2023-05-03T14:04:25.351Z,96248.00
2023-05-03T14:05:24.177Z,96248.00
2023-05-03T14:06:24.387Z,96248.00
2023-05-03T14:07:24.224Z,96246.00
2023-05-03T14:08:25.238Z,96250.00
2023-05-03T14:09:25.271Z,96246.00
2023-05-03T14:10:24.368Z,96246.00
2023-05-03T14:11:24.306Z,96248.00
2023-05-03T14:12:25.342Z,96248.00
2023-05-03T14:13:24.402Z,96246.00
2023-05-03T14:14:24.397Z,96246.00
2023-05-03T14:15:24.401Z,96246.00
2023-05-03T14:16:39.326Z,96248.00
2023-05-03T14:17:25.454Z,96248.00
2023-05-03T14:18:25.452Z,96250.00
2023-05-03T14:19:25.428Z,96254.00
2023-05-03T14:20:24.392Z,96248.00
2023-05-03T14:21:25.353Z,96252.00
2023-05-03T14:22:24.366Z,96254.00
2023-05-03T14:23:25.394Z,96250.00
2023-05-03T14:24:25.357Z,96252.00
2023-05-03T14:25:24.334Z,96254.00
2023-05-03T14:26:25.346Z,96254.00
2023-05-03T14:27:25.321Z,96250.00
2023-05-03T14:28:25.304Z,96256.00
2023-05-03T14:29:25.360Z,96248.00
2023-05-03T14:30:25.310Z,96250.00
2023-05-03T14:31:25.342Z,96248.00
2023-05-03T14:32:24.346Z,96252.00
2023-05-03T14:33:24.283Z,96252.00
2023-05-03T14:34:25.304Z,96248.00
2023-05-03T14:35:24.255Z,96246.00
2023-05-03T14:36:24.277Z,96248.00
2023-05-03T14:37:24.278Z,96248.00
2023-05-03T14:38:25.236Z,96252.00
2023-05-03T14:39:24.260Z,96254.00
2023-05-03T14:40:24.220Z,96256.00
2023-05-03T14:41:25.246Z,96252.00
2023-05-03T14:42:25.209Z,96256.00
2023-05-03T14:43:24.199Z,96256.00
2023-05-03T14:44:25.293Z,96254.00
2023-05-03T14:45:25.202Z,96256.00
2023-05-03T14:46:24.228Z,96258.00
2023-05-03T14:47:25.313Z,96254.00
2023-05-03T14:48:24.255Z,96254.00
2023-05-03T14:49:25.220Z,96254.00
2023-05-03T14:50:25.282Z,96256.00
2023-05-03T14:51:25.245Z,96252.00
2023-05-03T14:52:25.247Z,96254.00
2023-05-03T14:53:25.235Z,96258.00
2023-05-03T14:54:24.234Z,96256.00
2023-05-03T14:55:25.321Z,96258.00
2023-05-03T14:56:25.294Z,96258.00
2023-05-03T14:57:25.262Z,96258.00
2023-05-03T14:58:25.266Z,96258.00
2023-05-03T14:59:24.259Z,96258.00
2023-05-03T15:00:25.280Z,96256.00
2023-05-03T15:01:24.360Z,96256.00
2023-05-03T15:02:24.323Z,96258.00
2023-05-03T15:03:25.327Z,96258.00
2023-05-03T15:04:25.297Z,96262.00
2023-05-03T15:05:24.301Z,96262.00
2023-05-03T15:06:25.324Z,96262.00
2023-05-03T15:07:24.297Z,96258.00
2023-05-03T15:08:25.351Z,96260.00
2023-05-03T15:09:25.334Z,96258.00
2023-05-03T15:10:24.331Z,96258.00
2023-05-03T15:11:24.387Z,96258.00
2023-05-03T15:12:25.329Z,96258.00
2023-05-03T15:13:25.645Z,96262.00
2023-05-03T15:14:25.431Z,96258.00
2023-05-03T15:15:24.342Z,96260.00
2023-05-03T15:16:24.333Z,96258.00
2023-05-03T15:17:25.342Z,96260.00
2023-05-03T15:18:24.413Z,96258.00
2023-05-03T15:19:25.339Z,96262.00
2023-05-03T15:20:25.356Z,96260.00
2023-05-03T15:21:25.331Z,96260.00
2023-05-03T15:22:24.383Z,96260.00
2023-05-03T15:23:24.331Z,96258.00
2023-05-03T15:24:24.320Z,96260.00
2023-05-03T15:25:25.328Z,96260.00
2023-05-03T15:26:24.416Z,96260.00
2023-05-03T15:27:24.411Z,96262.00
2023-05-03T15:28:24.313Z,96262.00
2023-05-03T15:29:25.362Z,96262.00
